Time;durP1;ratioP1;P1;durP2;ratioP2;P2;SDS_P1;SDS_P2;PMS_P1;PMS_P2;Temp;Humidity;BMP_temperature;BMP_pressure;BME280_temperature;BME280_humidity;BME280_pressure;Samples;Min_cycle;Max_cycle;Signal;HPM_P1;HPM_P2
2024/01/17 00:01:57;;;;;;;81.30;33.33;;;-2.90;99.90;;;;;;5066646;28;20104;-50
2024/01/17 00:04:24;;;;;;;87.53;33.22;;;-2.90;99.90;;;;;;5064791;28;20067;-49
2024/01/17 00:06:50;;;;;;;85.72;32.97;;;-3.00;99.90;;;;;;5057805;28;20031;-50
2024/01/17 00:09:17;;;;;;;79.32;31.42;;;-3.00;99.90;;;;;;5066852;28;20033;-49
2024/01/17 00:11:42;;;;;;;81.53;32.45;;;-3.10;99.90;;;;;;5066713;28;20025;-48
2024/01/17 00:14:09;;;;;;;79.77;29.50;;;-3.10;99.90;;;;;;5068290;28;20047;-52
2024/01/17 00:16:35;;;;;;;73.30;29.83;;;-3.20;99.90;;;;;;5072127;28;20123;-51
2024/01/17 00:19:00;;;;;;;85.00;31.85;;;-3.20;99.90;;;;;;5070349;28;20040;-52
2024/01/17 00:21:27;;;;;;;85.67;31.33;;;-3.20;99.90;;;;;;5070220;28;20036;-51
2024/01/17 00:23:52;;;;;;;72.30;29.75;;;-3.20;99.90;;;;;;5070217;28;20572;-52
2024/01/17 00:26:18;;;;;;;72.43;28.80;;;-3.30;99.90;;;;;;5071019;28;20074;-50
2024/01/17 16:45:41;;;;;;;102.25;41.20;;;1.30;99.90;;;;;;5085530;27;20372;-51
2024/01/17 16:48:07;;;;;;;88.40;41.13;;;1.20;99.90;;;;;;5087195;28;20095;-49
2024/01/17 16:50:33;;;;;;;93.13;44.43;;;1.20;99.90;;;;;;5046151;28;20037;-48
2024/01/17 16:52:59;;;;;;;99.28;44.95;;;1.20;99.90;;;;;;5042993;28;20504;-47
2024/01/17 16:55:25;;;;;;;99.93;45.55;;;1.20;99.90;;;;;;5062575;28;20090;-49
2024/01/17 16:57:51;;;;;;;87.32;43.85;;;1.30;99.90;;;;;;5062731;28;20033;-50
2024/01/17 17:00:16;;;;;;;92.57;43.50;;;1.30;99.90;;;;;;5063144;28;20663;-52
2024/01/17 17:02:42;;;;;;;100.70;44.35;;;1.30;99.90;;;;;;5062877;28;20118;-50
2024/01/17 17:05:08;;;;;;;95.68;42.38;;;1.40;99.90;;;;;;5062774;28;20043;-46
2024/01/17 17:07:34;;;;;;;90.78;43.92;;;1.40;99.90;;;;;;5062152;28;20030;-50
2024/01/17 17:10:02;;;;;;;96.60;44.85;;;1.40;99.90;;;;;;5060907;28;20052;-47
2024/01/17 17:12:28;;;;;;;90.55;43.65;;;1.50;99.90;;;;;;5062671;28;20071;-50
2024/01/17 17:14:54;;;;;;;103.90;47.40;;;1.50;99.90;;;;;;5052526;28;20027;-48
2024/01/17 17:17:23;;;;;;;99.97;45.33;;;1.50;99.90;;;;;;5042254;28;20598;-49
2024/01/17 17:19:48;;;;;;;106.32;46.65;;;1.60;99.90;;;;;;5056666;28;20128;-47
2024/01/17 17:22:14;;;;;;;104.93;47.60;;;1.60;99.90;;;;;;5042389;28;20088;-50
2024/01/17 17:24:40;;;;;;;117.65;52.42;;;1.50;99.90;;;;;;5042260;28;20496;-48
2024/01/17 17:27:06;;;;;;;116.88;53.72;;;1.50;99.90;;;;;;5046103;28;20067;-51
2024/01/17 17:29:32;;;;;;;124.32;54.55;;;1.50;99.90;;;;;;5046185;28;20125;-46
2024/01/17 17:31:57;;;;;;;124.57;55.33;;;1.50;99.90;;;;;;5046412;28;20043;-49
2024/01/17 17:34:23;;;;;;;118.93;54.97;;;1.40;99.90;;;;;;5043554;28;20029;-50
2024/01/17 17:36:49;;;;;;;120.28;51.22;;;1.40;99.90;;;;;;5041878;28;20123;-48
2024/01/17 17:39:15;;;;;;;120.35;54.13;;;1.50;99.90;;;;;;5050155;28;20536;-47
2024/01/17 17:41:42;;;;;;;111.00;52.65;;;1.50;99.90;;;;;;5061326;28;20033;-46
2024/01/17 17:44:09;;;;;;;116.30;50.88;;;1.50;99.90;;;;;;5059870;28;20060;-48
2024/01/17 17:46:36;;;;;;;106.10;49.00;;;1.50;99.90;;;;;;5061802;28;20098;-46
2024/01/17 17:49:02;;;;;;;;;;;1.50;99.90;;;;;;5062237;28;20116;-48
2024/01/17 17:51:27;;;;;;;103.18;47.92;;;1.50;99.90;;;;;;5061154;28;19908;-50
2024/01/17 17:53:53;;;;;;;110.15;47.13;;;1.50;99.90;;;;;;5061134;28;20363;-52
2024/01/17 17:56:24;;;;;;;105.00;47.88;;;1.50;99.90;;;;;;5052398;28;20032;-53
2024/01/17 17:58:50;;;;;;;111.93;49.97;;;1.60;99.90;;;;;;5048367;28;20029;-49
2024/01/17 18:01:15;;;;;;;103.65;46.45;;;1.60;99.90;;;;;;5048040;28;20104;-47
2024/01/17 18:03:41;;;;;;;111.93;51.45;;;1.60;99.90;;;;;;5047228;28;20127;-47
2024/01/17 18:06:07;;;;;;;109.50;48.53;;;1.70;99.90;;;;;;5046096;28;20091;-46
2024/01/17 18:08:33;;;;;;;110.88;48.42;;;1.60;99.90;;;;;;5045977;28;20033;-47
2024/01/17 18:11:03;;;;;;;102.90;46.92;;;1.70;99.90;;;;;;5048000;28;20427;-49
2024/01/17 18:13:29;;;;;;;114.63;48.67;;;1.70;99.90;;;;;;5047355;28;20415;-50
2024/01/17 18:15:54;;;;;;;104.50;49.38;;;1.70;99.90;;;;;;5047094;28;20029;-48
2024/01/17 18:18:21;;;;;;;99.03;46.85;;;1.80;99.90;;;;;;5046644;28;20060;-49
2024/01/17 18:20:48;;;;;;;98.53;47.70;;;1.90;99.90;;;;;;5046777;28;20041;-48
2024/01/17 18:23:16;;;;;;;98.03;47.88;;;1.90;99.90;;;;;;5046934;28;20152;-47
2024/01/17 18:25:42;;;;;;;103.78;46.88;;;1.80;99.90;;;;;;5046805;28;20493;-47
2024/01/17 18:28:07;;;;;;;90.13;44.67;;;1.80;99.90;;;;;;5047032;28;20116;-51
2024/01/17 18:30:33;;;;;;;101.50;46.50;;;1.70;99.90;;;;;;5047013;28;20116;-48
2024/01/17 18:32:59;;;;;;;105.20;46.58;;;1.70;99.90;;;;;;5047347;28;20121;-48
2024/01/17 18:35:25;;;;;;;94.47;44.88;;;1.60;99.90;;;;;;5046860;28;20029;-50
2024/01/17 18:37:51;;;;;;;103.35;47.50;;;1.50;99.90;;;;;;5046015;28;20098;-48
2024/01/17 18:40:17;;;;;;;106.43;47.95;;;1.40;99.90;;;;;;5047140;28;20032;-50
2024/01/17 18:42:43;;;;;;;123.68;53.00;;;1.50;99.90;;;;;;5047043;28;20036;-51
2024/01/17 18:45:09;;;;;;;142.65;64.60;;;1.50;99.90;;;;;;5046308;28;20090;-50
2024/01/17 18:47:35;;;;;;;136.10;65.53;;;1.50;99.90;;;;;;5045357;28;20534;-48
2024/01/17 18:50:01;;;;;;;152.90;69.03;;;1.40;99.90;;;;;;5047039;28;20029;-47
2024/01/17 18:52:27;;;;;;;155.23;70.37;;;1.50;99.90;;;;;;5046975;28;20225;-49
2024/01/17 18:54:53;;;;;;;134.48;60.50;;;1.60;99.90;;;;;;5046861;28;20116;-49
2024/01/17 18:57:18;;;;;;;130.68;55.70;;;1.70;99.90;;;;;;5046911;28;20078;-51
2024/01/17 18:59:44;;;;;;;112.15;48.63;;;1.70;99.90;;;;;;5046539;28;20048;-49
2024/01/17 19:02:10;;;;;;;80.20;38.30;;;1.70;99.90;;;;;;5046212;28;20029;-48
2024/01/17 19:04:36;;;;;;;72.28;34.85;;;1.90;99.90;;;;;;5045134;28;20853;-50
2024/01/17 19:07:01;;;;;;;66.47;31.80;;;2.10;99.90;;;;;;5045782;28;20045;-49
2024/01/17 19:09:27;;;;;;;66.32;29.80;;;2.20;99.90;;;;;;5044283;28;20094;-50
2024/01/17 19:11:53;;;;;;;63.58;30.45;;;2.40;99.90;;;;;;5046486;28;20472;-53
2024/01/17 19:14:18;;;;;;;57.10;27.80;;;2.60;99.90;;;;;;5044917;28;20455;-50
2024/01/17 19:16:44;;;;;;;49.83;25.40;;;2.70;99.90;;;;;;5046469;28;20021;-46
2024/01/17 19:19:11;;;;;;;57.20;25.05;;;2.80;99.90;;;;;;5046238;28;20260;-52
2024/01/17 19:21:37;;;;;;;47.00;20.63;;;3.00;99.90;;;;;;5044872;28;20020;-46
2024/01/17 19:24:04;;;;;;;53.47;23.23;;;3.10;99.90;;;;;;5044568;28;20669;-53
2024/01/17 19:26:30;;;;;;;49.88;23.95;;;3.00;99.90;;;;;;5046042;28;20036;-50
2024/01/17 19:28:57;;;;;;;48.60;22.85;;;3.10;99.90;;;;;;5046935;28;20063;-52
2024/01/17 19:31:23;;;;;;;;;;;3.10;99.90;;;;;;5046610;28;20036;-45
2024/01/17 19:33:50;;;;;;;46.97;22.08;;;3.10;99.90;;;;;;5045602;28;20625;-47
2024/01/17 19:36:16;;;;;;;47.50;23.20;;;3.10;99.90;;;;;;5046132;28;20041;-48
2024/01/17 19:38:42;;;;;;;55.63;26.48;;;3.20;99.90;;;;;;5045795;28;20055;-48
2024/01/17 19:41:08;;;;;;;55.40;28.07;;;3.10;99.90;;;;;;5045128;28;20040;-46
2024/01/17 19:43:33;;;;;;;67.28;33.25;;;3.10;99.90;;;;;;5048609;28;20060;-51
2024/01/17 19:45:59;;;;;;;62.58;33.58;;;3.10;99.90;;;;;;5049862;28;20028;-47
2024/01/17 19:48:26;;;;;;;65.05;33.72;;;3.10;99.90;;;;;;5047036;28;20407;-48
2024/01/17 19:50:52;;;;;;;57.97;30.17;;;3.10;99.90;;;;;;5046074;28;20484;-51
2024/01/17 19:53:20;;;;;;;57.00;30.88;;;3.20;99.90;;;;;;5046545;28;20124;-52
2024/01/17 19:55:47;;;;;;;70.32;34.55;;;3.20;99.90;;;;;;5045457;28;20514;-46
2024/01/17 19:58:14;;;;;;;65.97;31.95;;;3.20;99.90;;;;;;5045962;28;20090;-53
2024/01/17 20:00:39;;;;;;;64.88;30.88;;;3.20;99.90;;;;;;5046153;28;20036;-47
2024/01/17 20:03:05;;;;;;;57.85;30.45;;;3.30;99.90;;;;;;5045646;28;20112;-51
2024/01/17 20:05:31;;;;;;;63.22;32.40;;;3.30;99.90;;;;;;5045643;28;20096;-46
2024/01/17 20:07:56;;;;;;;53.60;27.13;;;3.20;99.90;;;;;;5045955;28;20079;-47
2024/01/17 20:10:22;;;;;;;47.67;25.38;;;3.30;99.90;;;;;;5044000;28;20424;-48
2024/01/17 20:12:49;;;;;;;45.13;23.42;;;3.40;99.90;;;;;;5045044;28;20025;-47
2024/01/17 20:15:15;;;;;;;42.63;20.58;;;3.40;99.90;;;;;;5044103;28;20061;-49
2024/01/17 20:17:41;;;;;;;33.05;17.33;;;3.50;99.90;;;;;;5043955;28;20064;-47
2024/01/17 20:20:07;;;;;;;34.97;17.23;;;3.50;99.90;;;;;;5044329;28;20036;-48
2024/01/17 20:22:33;;;;;;;33.60;15.20;;;3.60;99.90;;;;;;5044849;28;20029;-45
2024/01/17 20:24:59;;;;;;;30.02;15.23;;;3.70;99.90;;;;;;5045598;28;20041;-48
2024/01/17 20:27:25;;;;;;;33.13;14.38;;;3.80;99.90;;;;;;5045667;28;20195;-51
2024/01/17 20:29:51;;;;;;;32.13;15.48;;;3.80;99.90;;;;;;5045720;28;20452;-48
2024/01/17 20:32:17;;;;;;;33.47;16.23;;;3.80;99.90;;;;;;5045148;28;20112;-48
2024/01/17 20:34:44;;;;;;;26.55;14.13;;;3.80;99.90;;;;;;5045544;28;20029;-49
2024/01/17 20:37:10;;;;;;;;;;;3.80;99.90;;;;;;5046056;28;20040;-45
2024/01/17 20:39:36;;;;;;;29.20;13.38;;;3.80;99.90;;;;;;5044799;28;19908;-47
2024/01/17 20:42:04;;;;;;;31.08;14.98;;;3.80;99.90;;;;;;5046472;28;20065;-47
2024/01/17 20:44:30;;;;;;;36.47;18.25;;;3.90;99.90;;;;;;5045510;28;20049;-45
2024/01/17 20:46:57;;;;;;;35.88;17.67;;;3.90;99.90;;;;;;5045733;28;20028;-49
2024/01/17 20:49:23;;;;;;;;;;;3.90;99.90;;;;;;5045169;28;20870;-45
2024/01/17 20:51:49;;;;;;;35.95;16.38;;;3.90;99.90;;;;;;5045593;28;19905;-46
2024/01/17 20:54:15;;;;;;;30.48;16.92;;;3.80;99.90;;;;;;5045331;28;20029;-50
2024/01/17 20:56:45;;;;;;;35.05;16.88;;;3.80;99.90;;;;;;5045215;28;20095;-47
2024/01/17 20:59:11;;;;;;;35.63;17.00;;;3.80;99.90;;;;;;5045353;28;20024;-47
2024/01/17 21:01:37;;;;;;;39.83;18.73;;;3.70;99.90;;;;;;5044937;28;20029;-48
2024/01/17 21:04:06;;;;;;;40.13;18.53;;;3.70;99.90;;;;;;5043550;28;20391;-47
2024/01/17 21:06:33;;;;;;;40.85;18.02;;;3.70;99.90;;;;;;5044286;28;20276;-49
2024/01/17 21:08:59;;;;;;;39.00;19.45;;;3.70;99.90;;;;;;5052754;28;20107;-48
2024/01/17 21:11:26;;;;;;;40.90;19.63;;;3.70;99.90;;;;;;5064596;28;20547;-48
2024/01/17 21:13:52;;;;;;;;;;;3.70;99.90;;;;;;5065029;28;20094;-48
2024/01/17 21:16:18;;;;;;;35.55;17.08;;;3.70;99.90;;;;;;5083943;28;19928;-48
2024/01/17 21:18:44;;;;;;;42.50;19.40;;;3.70;99.90;;;;;;5044344;28;20021;-49
2024/01/17 21:21:10;;;;;;;39.90;18.80;;;3.60;99.90;;;;;;5043644;28;20607;-50
2024/01/17 21:23:36;;;;;;;39.47;17.63;;;3.70;99.90;;;;;;5044034;28;20132;-49
2024/01/17 21:26:01;;;;;;;39.25;18.45;;;3.60;99.90;;;;;;5043284;28;20037;-50
2024/01/17 21:28:28;;;;;;;42.25;22.20;;;3.60;99.90;;;;;;5043466;28;20033;-50
2024/01/17 21:30:54;;;;;;;41.40;20.20;;;3.60;99.90;;;;;;5045577;28;20036;-52
2024/01/17 21:33:21;;;;;;;42.67;22.92;;;3.60;99.90;;;;;;5048455;28;20472;-51
2024/01/17 21:35:47;;;;;;;;;;;3.50;99.90;;;;;;5056172;28;20085;-49
2024/01/17 21:38:15;;;;;;;48.20;25.00;;;3.50;99.90;;;;;;5058513;28;20003;-46
2024/01/17 21:40:41;;;;;;;39.30;19.25;;;3.50;99.90;;;;;;5056234;28;20082;-52
2024/01/17 21:43:07;;;;;;;40.15;19.88;;;3.50;99.90;;;;;;5054643;28;20036;-52
2024/01/17 21:45:32;;;;;;;44.45;20.38;;;3.50;99.90;;;;;;5056880;28;20049;-57
2024/01/17 21:47:58;;;;;;;51.47;24.02;;;3.40;99.90;;;;;;5058780;28;20071;-49
2024/01/17 21:50:24;;;;;;;67.57;28.50;;;3.30;99.90;;;;;;5060194;28;20028;-51
2024/01/17 21:52:50;;;;;;;47.55;22.25;;;3.30;99.90;;;;;;5062933;28;20082;-47
2024/01/17 21:55:16;;;;;;;40.25;21.83;;;3.30;99.90;;;;;;5064559;28;20029;-49
2024/01/17 21:57:41;;;;;;;44.95;21.10;;;3.30;99.90;;;;;;5061684;28;20025;-50
2024/01/17 22:00:09;;;;;;;50.35;25.17;;;3.20;99.90;;;;;;5063307;28;20032;-50
2024/01/17 22:02:34;;;;;;;41.40;21.08;;;3.20;99.90;;;;;;5064762;28;20033;-49
2024/01/17 22:05:00;;;;;;;42.30;21.33;;;3.10;99.90;;;;;;5062396;28;20025;-51
2024/01/17 22:07:26;;;;;;;40.35;20.55;;;2.90;99.90;;;;;;5057146;28;20028;-49
2024/01/17 22:09:51;;;;;;;46.30;22.70;;;2.70;99.90;;;;;;5055815;28;20033;-49
2024/01/17 22:12:17;;;;;;;81.97;37.13;;;2.60;99.90;;;;;;5055645;28;20523;-47
2024/01/17 22:14:44;;;;;;;110.60;48.50;;;2.60;99.90;;;;;;5057482;28;20051;-47
2024/01/17 22:17:14;;;;;;;117.53;48.33;;;2.60;99.90;;;;;;5057071;28;20536;-50
2024/01/17 22:19:41;;;;;;;110.18;46.38;;;2.50;99.90;;;;;;5057778;28;20045;-49
2024/01/17 22:22:06;;;;;;;104.25;44.08;;;2.50;99.90;;;;;;5043896;28;20040;-50
2024/01/17 22:24:34;;;;;;;88.15;38.97;;;2.60;99.90;;;;;;5048473;28;20475;-50
2024/01/17 22:27:00;;;;;;;83.03;38.47;;;2.50;99.90;;;;;;5048934;28;20580;-52
2024/01/17 22:29:26;;;;;;;73.68;35.25;;;2.50;99.90;;;;;;5048721;28;20048;-48
2024/01/17 22:31:51;;;;;;;84.50;37.13;;;2.60;99.90;;;;;;5049156;28;20957;-45
2024/01/17 22:34:18;;;;;;;76.15;34.38;;;2.60;99.90;;;;;;5049721;28;20078;-50
2024/01/17 22:36:43;;;;;;;79.30;35.35;;;2.80;99.90;;;;;;5059953;28;20071;-51
2024/01/17 22:39:13;;;;;;;82.07;36.70;;;3.10;99.90;;;;;;5059356;28;20017;-49
2024/01/17 22:41:43;;;;;;;91.65;39.75;;;3.10;99.90;;;;;;5057830;28;20056;-46
2024/01/17 22:44:12;;;;;;;97.80;45.50;;;3.10;99.90;;;;;;5056404;28;20045;-48
2024/01/17 22:46:37;;;;;;;83.93;37.30;;;2.90;99.90;;;;;;5049609;28;20037;-46
2024/01/17 22:49:04;;;;;;;104.57;44.53;;;3.00;99.90;;;;;;5049930;28;20099;-47
2024/01/17 22:51:30;;;;;;;109.43;47.17;;;3.00;99.90;;;;;;5049759;28;20037;-49
2024/01/17 22:53:55;;;;;;;90.32;40.97;;;2.90;99.90;;;;;;5049522;28;20465;-50
2024/01/17 22:56:21;;;;;;;139.40;60.00;;;3.00;99.90;;;;;;5057911;28;20387;-49
2024/01/17 22:58:47;;;;;;;138.20;60.28;;;3.00;99.90;;;;;;5046566;28;20049;-49
2024/01/17 23:01:13;;;;;;;158.95;63.53;;;2.90;99.90;;;;;;5057327;28;20060;-48
2024/01/17 23:03:39;;;;;;;100.10;45.40;;;2.90;99.90;;;;;;5057461;28;21460;-48
2024/01/17 23:06:04;;;;;;;130.57;53.35;;;3.00;99.90;;;;;;5059948;28;20021;-52
2024/01/17 23:08:30;;;;;;;115.93;51.15;;;3.00;99.90;;;;;;5058306;28;20021;-45
2024/01/17 23:10:56;;;;;;;142.25;58.65;;;3.00;99.90;;;;;;5057931;28;20082;-51
2024/01/17 23:13:22;;;;;;;134.20;57.13;;;3.10;99.90;;;;;;5059885;28;20074;-52
2024/01/17 23:15:48;;;;;;;176.43;78.93;;;3.10;99.90;;;;;;5057949;28;20024;-48
2024/01/17 23:18:15;;;;;;;190.88;84.95;;;3.00;99.90;;;;;;5057774;28;20438;-48
2024/01/17 23:20:41;;;;;;;197.75;86.57;;;2.80;99.90;;;;;;5059636;28;20028;-45
